createdAt,value
2023-02-24T00:02:06.444Z,19.02
2023-02-24T00:04:41.741Z,19.27
2023-02-24T00:07:11.458Z,17.00
2023-02-24T00:09:39.562Z,16.70
2023-02-24T00:12:12.853Z,18.42
2023-02-24T00:14:41.878Z,19.05
2023-02-24T00:17:11.035Z,16.95
2023-02-24T00:19:38.945Z,17.27
2023-02-24T00:22:08.022Z,17.77
2023-02-24T00:24:36.180Z,16.48
2023-02-24T00:27:08.188Z,15.40
2023-02-24T00:29:37.942Z,16.13
2023-02-24T00:32:07.406Z,15.18
2023-02-24T00:34:36.673Z,13.43
2023-02-24T00:37:07.064Z,12.75
2023-02-24T00:39:34.694Z,9.98
2023-02-24T00:42:06.260Z,8.25
2023-02-24T00:44:38.982Z,8.75
2023-02-24T00:47:08.083Z,7.38
2023-02-24T00:49:36.622Z,7.43
2023-02-24T00:52:09.004Z,7.40
2023-02-24T00:54:36.919Z,7.53
2023-02-24T00:57:07.170Z,6.30
2023-02-24T00:59:35.412Z,6.10
2023-02-24T01:02:04.070Z,6.28
2023-02-24T01:04:31.511Z,5.18
2023-02-24T01:07:04.829Z,6.32
2023-02-24T01:09:32.858Z,4.68
2023-02-24T01:12:39.095Z,3.97
2023-02-24T01:15:11.842Z,4.57
2023-02-24T01:17:38.876Z,4.05
2023-02-24T01:20:22.090Z,3.38
2023-02-24T01:22:57.401Z,3.42
2023-02-24T01:28:05.878Z,4.53
2023-02-24T01:33:18.927Z,3.90
2023-02-24T01:35:49.768Z,3.88
2023-02-24T01:38:23.788Z,4.38
2023-02-24T01:41:00.708Z,3.22
2023-02-24T01:43:39.716Z,3.75
2023-02-24T01:46:07.092Z,3.35
2023-02-24T01:48:35.785Z,3.45
2023-02-24T01:51:03.702Z,2.97
2023-02-24T01:53:33.102Z,2.97
2023-02-24T01:56:00.323Z,2.92
2023-02-24T01:58:28.966Z,2.45
2023-02-24T02:03:42.533Z,2.20
2023-02-24T02:06:12.955Z,2.72
2023-02-24T02:08:43.752Z,2.83
2023-02-24T02:11:15.031Z,3.20
2023-02-24T02:13:47.814Z,2.25
2023-02-24T02:16:38.003Z,2.42
2023-02-24T02:19:24.891Z,2.20
2023-02-24T02:22:09.814Z,2.35
2023-02-24T02:24:39.763Z,2.28
2023-02-24T02:27:21.455Z,1.88
2023-02-24T02:30:29.501Z,2.45
2023-02-24T02:33:21.826Z,2.17
2023-02-24T02:36:02.139Z,1.50
2023-02-24T02:38:53.831Z,2.25
2023-02-24T02:41:40.771Z,1.55
2023-02-24T02:44:20.165Z,2.95
2023-02-24T02:46:53.739Z,2.17
2023-02-24T02:49:33.533Z,2.25
2023-02-24T02:52:31.600Z,1.92
2023-02-24T02:57:57.910Z,1.90
2023-02-24T03:03:20.134Z,1.55
2023-02-24T03:05:52.529Z,2.38
2023-02-24T03:08:24.385Z,1.80
2023-02-24T03:10:54.630Z,2.42
2023-02-24T03:13:25.550Z,1.90
2023-02-24T03:16:05.522Z,1.92
2023-02-24T03:18:45.705Z,2.05
2023-02-24T03:21:25.572Z,2.20
2023-02-24T03:29:34.947Z,1.42
2023-02-24T03:35:19.406Z,1.35
2023-02-24T03:43:30.137Z,1.88
2023-02-24T03:49:03.886Z,2.58
2023-02-24T03:51:32.269Z,1.58
2023-02-24T03:54:48.634Z,2.13
2023-02-24T03:57:20.578Z,1.75
2023-02-24T04:02:34.636Z,1.83
2023-02-24T04:05:13.224Z,2.33
2023-02-24T04:08:13.028Z,1.83
2023-02-24T04:10:53.197Z,2.15
2023-02-24T04:13:47.691Z,2.03
2023-02-24T04:19:17.567Z,2.55
2023-02-24T04:21:45.887Z,1.95
2023-02-24T04:24:18.269Z,2.70
2023-02-24T04:26:47.785Z,2.33
2023-02-24T04:29:31.660Z,2.30
2023-02-24T04:32:02.945Z,1.95
2023-02-24T04:34:34.958Z,2.20
2023-02-24T04:37:02.925Z,2.58
2023-02-24T04:39:31.063Z,2.00
2023-02-24T04:41:58.972Z,2.03
2023-02-24T04:44:26.802Z,2.28
2023-02-24T04:46:53.853Z,2.38
2023-02-24T04:49:21.196Z,1.95
2023-02-24T04:51:48.162Z,2.25
2023-02-24T04:54:20.320Z,1.73
2023-02-24T04:56:51.124Z,1.75
2023-02-24T04:59:24.994Z,2.15
2023-02-24T05:01:52.468Z,1.85
2023-02-24T05:04:19.981Z,1.90
2023-02-24T05:06:47.908Z,1.42
2023-02-24T05:09:20.230Z,1.88
2023-02-24T05:11:50.062Z,1.70
2023-02-24T05:14:21.836Z,1.50
2023-02-24T05:16:50.651Z,2.13
2023-02-24T05:19:38.780Z,1.35
2023-02-24T05:22:08.746Z,1.73
2023-02-24T05:24:36.977Z,2.35
2023-02-24T05:27:06.822Z,1.83
2023-02-24T05:29:38.156Z,1.33
2023-02-24T05:34:47.136Z,1.27
2023-02-24T05:37:17.009Z,2.97
2023-02-24T05:39:44.292Z,1.55
2023-02-24T05:42:11.969Z,1.70
2023-02-24T05:44:39.722Z,1.80
2023-02-24T05:47:07.657Z,2.95
2023-02-24T05:49:35.661Z,1.75
2023-02-24T05:52:08.321Z,1.42
2023-02-24T05:54:40.882Z,1.30
2023-02-24T05:57:13.282Z,1.35
2023-02-24T05:59:43.453Z,1.92
2023-02-24T06:02:13.112Z,2.88
2023-02-24T06:04:54.159Z,1.92
2023-02-24T06:07:26.916Z,1.45
2023-02-24T06:09:58.999Z,1.27
2023-02-24T06:12:31.309Z,3.25
2023-02-24T06:14:58.877Z,1.70
2023-02-24T06:17:29.121Z,1.90
2023-02-24T06:19:56.661Z,1.25
2023-02-24T06:22:25.287Z,1.92
2023-02-24T06:24:57.807Z,2.08
2023-02-24T06:27:25.743Z,2.75
2023-02-24T06:29:54.569Z,1.13
2023-02-24T06:32:24.693Z,1.88
2023-02-24T06:34:52.229Z,1.77
2023-02-24T06:37:19.816Z,1.80
2023-02-24T06:39:46.990Z,2.42
2023-02-24T06:42:14.165Z,0.93
2023-02-24T06:44:42.207Z,1.75
2023-02-24T06:47:13.467Z,1.58
2023-02-24T06:49:43.094Z,1.83
2023-02-24T06:52:12.034Z,1.20
2023-02-24T06:54:39.936Z,1.10
2023-02-24T06:57:10.231Z,1.85
2023-02-24T06:59:37.293Z,1.50
2023-02-24T07:02:04.485Z,1.50
2023-02-24T07:04:36.466Z,1.73
2023-02-24T07:07:03.766Z,1.33
2023-02-24T07:09:32.441Z,1.63
2023-02-24T07:12:02.954Z,1.40
2023-02-24T07:14:34.097Z,1.20
2023-02-24T07:17:01.255Z,1.60
2023-02-24T07:19:30.794Z,1.17
2023-02-24T07:22:03.897Z,1.52
2023-02-24T07:24:42.347Z,1.52
2023-02-24T07:27:13.593Z,1.60
2023-02-24T07:29:40.470Z,1.95
2023-02-24T07:32:09.757Z,1.40
2023-02-24T07:34:40.853Z,1.30
2023-02-24T07:37:09.443Z,1.70
2023-02-24T07:39:38.439Z,1.23
2023-02-24T07:42:08.809Z,1.77
2023-02-24T07:44:35.899Z,1.40
2023-02-24T07:47:08.253Z,1.23
2023-02-24T07:49:36.282Z,1.25
2023-02-24T07:52:03.727Z,1.23
2023-02-24T07:54:31.801Z,1.45
2023-02-24T07:56:59.922Z,1.30
2023-02-24T07:59:35.776Z,1.42
2023-02-24T08:02:05.305Z,1.67
2023-02-24T08:04:33.375Z,1.70
2023-02-24T08:07:03.627Z,2.00
2023-02-24T08:09:45.758Z,1.27
2023-02-24T08:12:22.478Z,1.30
2023-02-24T08:14:52.396Z,1.60
2023-02-24T08:17:27.933Z,1.55
2023-02-24T08:20:28.630Z,1.30
2023-02-24T08:22:58.596Z,1.98
2023-02-24T08:25:35.833Z,2.13
2023-02-24T08:28:09.219Z,1.30
2023-02-24T08:30:50.065Z,1.90
2023-02-24T08:33:22.774Z,1.20
2023-02-24T08:36:02.591Z,1.23
2023-02-24T08:38:40.518Z,1.40
2023-02-24T08:41:13.401Z,1.65
2023-02-24T08:43:50.089Z,1.30
2023-02-24T08:46:21.729Z,1.67
2023-02-24T08:48:51.426Z,1.77
2023-02-24T08:51:24.220Z,1.95
2023-02-24T08:53:56.088Z,1.67
2023-02-24T08:56:29.364Z,1.50
2023-02-24T08:59:06.025Z,1.73
2023-02-24T09:01:36.668Z,1.70
2023-02-24T09:04:10.250Z,1.88
2023-02-24T09:06:51.245Z,2.55
2023-02-24T09:09:23.505Z,1.50
2023-02-24T09:11:57.139Z,1.77
2023-02-24T09:14:36.765Z,1.90
2023-02-24T09:17:21.017Z,1.65
2023-02-24T09:19:52.903Z,1.33
2023-02-24T09:22:32.776Z,1.75
2023-02-24T09:25:25.141Z,1.83
2023-02-24T09:27:56.547Z,1.77
2023-02-24T09:30:36.796Z,1.52
2023-02-24T09:33:23.845Z,1.63
2023-02-24T09:36:11.126Z,1.52
2023-02-24T09:39:00.817Z,1.80
2023-02-24T09:42:10.511Z,1.45
2023-02-24T09:44:48.765Z,1.48
2023-02-24T09:47:40.308Z,1.45
2023-02-24T09:51:00.902Z,1.05
2023-02-24T09:53:25.022Z,1.05
2023-02-24T09:56:00.786Z,1.48
2023-02-24T09:58:44.162Z,1.17
2023-02-24T10:01:34.019Z,1.30
2023-02-24T10:04:21.498Z,1.70
2023-02-24T10:06:58.593Z,1.50
2023-02-24T10:09:36.287Z,1.33
2023-02-24T10:12:29.528Z,1.50
2023-02-24T10:15:19.174Z,1.75
2023-02-24T10:17:57.586Z,1.40
2023-02-24T10:20:49.902Z,1.23
2023-02-24T10:23:34.873Z,1.33
2023-02-24T10:26:22.188Z,1.15
2023-02-24T10:29:21.473Z,1.33
2023-02-24T10:31:58.346Z,1.05
2023-02-24T10:34:31.944Z,1.30
2023-02-24T10:37:08.875Z,1.10
2023-02-24T10:39:41.820Z,1.35
2023-02-24T10:42:17.884Z,1.35
2023-02-24T10:45:01.306Z,1.45
2023-02-24T10:47:33.362Z,1.10
2023-02-24T10:50:05.716Z,1.20
2023-02-24T10:53:11.850Z,1.40
2023-02-24T10:55:43.560Z,1.48
2023-02-24T10:58:43.804Z,1.33
2023-02-24T11:01:21.530Z,0.93
2023-02-24T11:04:02.730Z,1.20
2023-02-24T11:06:41.297Z,1.20
2023-02-24T11:09:35.429Z,1.30
2023-02-24T11:12:44.161Z,1.20
2023-02-24T11:15:44.597Z,1.50
2023-02-24T11:18:18.892Z,1.13
2023-02-24T11:20:50.146Z,1.13
2023-02-24T11:23:39.403Z,1.20
2023-02-24T11:26:17.088Z,1.10
2023-02-24T11:28:59.759Z,1.00
2023-02-24T11:31:58.912Z,1.52
2023-02-24T11:34:49.781Z,2.17
2023-02-24T11:37:46.623Z,1.67
2023-02-24T11:40:29.889Z,1.00
2023-02-24T11:43:19.510Z,1.42
2023-02-24T11:45:51.782Z,1.40
2023-02-24T11:48:21.459Z,1.17
2023-02-24T11:51:06.172Z,1.30
2023-02-24T11:53:52.629Z,1.40
2023-02-24T11:56:32.298Z,1.67
2023-02-24T11:59:18.675Z,1.25
2023-02-24T12:02:08.110Z,1.30
2023-02-24T12:04:40.056Z,1.23
2023-02-24T12:07:32.904Z,1.30
2023-02-24T12:10:28.269Z,1.45
2023-02-24T12:13:05.698Z,1.33
2023-02-24T12:15:40.491Z,1.50
2023-02-24T12:18:25.457Z,1.42
2023-02-24T12:21:06.376Z,1.60
2023-02-24T12:23:39.878Z,2.00
2023-02-24T12:26:13.962Z,1.52
2023-02-24T12:28:59.797Z,2.40
2023-02-24T12:31:53.828Z,3.85
2023-02-24T12:34:44.186Z,1.63
2023-02-24T12:37:22.572Z,2.15
2023-02-24T12:39:49.285Z,1.45
2023-02-24T12:42:41.398Z,0.82
2023-02-24T12:45:26.494Z,1.60
2023-02-24T12:48:25.645Z,1.50
2023-02-24T12:51:04.339Z,1.23
2023-02-24T12:53:43.946Z,1.27
2023-02-24T12:56:24.468Z,1.50
2023-02-24T12:58:53.742Z,0.88
2023-02-24T13:01:33.364Z,1.88
2023-02-24T13:04:08.652Z,1.27
2023-02-24T13:06:47.978Z,1.23
2023-02-24T13:09:24.617Z,1.52
2023-02-24T13:12:06.740Z,1.33
2023-02-24T13:14:38.268Z,1.27
2023-02-24T13:17:11.039Z,1.40
2023-02-24T13:19:42.370Z,1.50
2023-02-24T13:22:12.093Z,2.10
2023-02-24T13:24:44.436Z,1.80
2023-02-24T13:27:17.093Z,1.48
2023-02-24T13:29:49.325Z,1.00
2023-02-24T13:32:45.651Z,1.08
2023-02-24T13:35:15.286Z,1.15
2023-02-24T13:37:46.990Z,1.17
2023-02-24T13:40:23.971Z,1.20
2023-02-24T13:43:05.376Z,1.23
2023-02-24T13:45:38.200Z,1.48
2023-02-24T13:48:15.032Z,1.55
2023-02-24T13:51:00.509Z,1.45
2023-02-24T13:53:52.123Z,1.30
2023-02-24T13:56:40.601Z,1.35
2023-02-24T13:59:38.227Z,1.50
2023-02-24T14:02:11.383Z,1.63
2023-02-24T14:04:49.532Z,1.30
2023-02-24T14:07:25.408Z,0.93
2023-02-24T14:10:01.491Z,1.10
2023-02-24T14:12:33.103Z,1.27
2023-02-24T14:15:02.223Z,1.17
2023-02-24T14:17:37.227Z,1.33
2023-02-24T14:20:08.142Z,1.15
2023-02-24T14:22:39.803Z,1.33
2023-02-24T14:25:09.660Z,1.77
2023-02-24T14:27:39.452Z,1.75
2023-02-24T14:30:08.077Z,1.52
2023-02-24T14:32:35.434Z,1.55
2023-02-24T14:35:02.828Z,1.80
2023-02-24T14:37:31.586Z,1.40
2023-02-24T14:40:00.509Z,1.50
2023-02-24T14:42:29.168Z,1.35
2023-02-24T14:44:58.446Z,1.50
2023-02-24T14:47:29.041Z,1.63
2023-02-24T14:50:02.372Z,1.17
2023-02-24T14:52:40.609Z,1.30
2023-02-24T14:55:18.479Z,1.40
2023-02-24T14:58:13.250Z,1.10
2023-02-24T15:00:53.707Z,1.20
2023-02-24T15:03:28.055Z,1.38
2023-02-24T15:05:57.679Z,1.23
2023-02-24T15:08:30.415Z,1.10
2023-02-24T15:11:01.268Z,1.35
2023-02-24T15:13:38.585Z,1.15
2023-02-24T15:16:15.249Z,1.35
2023-02-24T15:18:42.693Z,1.25
2023-02-24T15:21:21.352Z,1.25
2023-02-24T15:23:48.642Z,1.10
2023-02-24T15:26:33.819Z,1.00
2023-02-24T15:29:14.755Z,1.13
2023-02-24T15:31:48.082Z,1.00
2023-02-24T15:34:20.675Z,1.30
2023-02-24T15:36:48.603Z,0.95
2023-02-24T15:39:23.494Z,1.63
2023-02-24T15:41:52.395Z,1.35
2023-02-24T15:44:30.044Z,0.70
2023-02-24T15:46:59.132Z,1.00
2023-02-24T15:49:26.006Z,1.50
2023-02-24T15:51:55.910Z,0.98
2023-02-24T15:54:32.903Z,0.90
2023-02-24T15:57:00.877Z,1.30
2023-02-24T15:59:29.746Z,1.08
2023-02-24T16:02:05.821Z,1.38
2023-02-24T16:04:32.895Z,1.50
2023-02-24T16:07:07.185Z,1.17
2023-02-24T16:09:39.676Z,1.50
2023-02-24T16:12:11.120Z,1.52
2023-02-24T16:14:38.284Z,1.30
2023-02-24T16:17:12.390Z,1.70
2023-02-24T16:19:42.528Z,1.48
2023-02-24T16:22:11.392Z,1.58
2023-02-24T16:24:38.687Z,1.60
2023-02-24T16:27:20.466Z,1.80
2023-02-24T16:29:47.929Z,2.70
2023-02-24T16:32:17.916Z,1.80
2023-02-24T16:34:45.393Z,2.30
2023-02-24T16:37:24.658Z,1.70
2023-02-24T16:39:52.181Z,2.28
2023-02-24T16:42:21.822Z,2.63
2023-02-24T16:44:49.894Z,2.67
2023-02-24T16:47:22.652Z,2.42
2023-02-24T16:49:49.808Z,1.73
2023-02-24T16:52:20.863Z,2.47
2023-02-24T16:54:49.189Z,2.15
2023-02-24T16:57:16.653Z,2.15
2023-02-24T16:59:43.512Z,2.20
2023-02-24T17:02:19.754Z,2.75
2023-02-24T17:04:46.683Z,2.80
2023-02-24T17:07:15.782Z,2.88
2023-02-24T17:09:42.874Z,2.78
2023-02-24T17:12:12.749Z,2.83
2023-02-24T17:14:39.599Z,2.78
2023-02-24T17:17:06.921Z,3.40
2023-02-24T17:19:34.929Z,3.88
2023-02-24T17:22:02.482Z,4.05
2023-02-24T17:24:30.699Z,3.42
2023-02-24T17:27:00.057Z,4.13
2023-02-24T17:29:27.886Z,3.45
2023-02-24T17:31:55.502Z,3.85
2023-02-24T17:34:24.485Z,3.90
2023-02-24T17:36:51.376Z,3.88
2023-02-24T17:39:18.382Z,3.90
2023-02-24T17:41:45.651Z,3.78
2023-02-24T17:44:12.965Z,4.20
2023-02-24T17:46:39.828Z,4.68
2023-02-24T17:49:06.995Z,4.30
2023-02-24T17:51:34.068Z,5.30
2023-02-24T17:54:00.909Z,4.68
2023-02-24T17:56:30.047Z,5.07
2023-02-24T17:58:59.368Z,4.80
2023-02-24T18:01:26.987Z,5.40
2023-02-24T18:03:56.146Z,6.60
2023-02-24T18:06:23.724Z,6.13
2023-02-24T18:08:50.841Z,6.15
2023-02-24T18:11:22.566Z,6.32
2023-02-24T18:13:53.233Z,6.85
2023-02-24T18:16:21.164Z,6.50
2023-02-24T18:18:53.584Z,6.72
2023-02-24T18:21:20.858Z,6.72
2023-02-24T18:23:50.001Z,7.32
2023-02-24T18:26:17.352Z,6.22
2023-02-24T18:28:46.666Z,6.85
2023-02-24T18:31:20.611Z,6.93
2023-02-24T18:33:48.187Z,7.13
2023-02-24T18:36:15.831Z,6.57
2023-02-24T18:38:43.031Z,6.45
2023-02-24T18:41:18.856Z,6.57
2023-02-24T18:43:51.592Z,7.40
2023-02-24T18:46:18.979Z,6.60
2023-02-24T18:48:52.811Z,7.63
2023-02-24T18:51:22.397Z,7.80
2023-02-24T18:53:52.140Z,7.50
2023-02-24T18:56:25.426Z,7.05
2023-02-24T18:58:55.662Z,7.78
2023-02-24T19:01:37.135Z,7.20
2023-02-24T19:04:04.553Z,7.63
2023-02-24T19:06:32.955Z,7.70
2023-02-24T19:09:06.326Z,7.65
2023-02-24T19:11:34.285Z,7.47
2023-02-24T19:14:01.124Z,7.68
2023-02-24T19:16:28.246Z,7.40
2023-02-24T19:18:56.949Z,7.50
2023-02-24T19:21:27.666Z,7.28
2023-02-24T19:23:55.045Z,8.15
2023-02-24T19:26:25.042Z,7.65
2023-02-24T19:28:52.225Z,8.23
2023-02-24T19:31:24.504Z,8.55
2023-02-24T19:34:00.612Z,8.40
2023-02-24T19:36:28.483Z,7.72
2023-02-24T19:38:55.641Z,8.50
2023-02-24T19:41:22.682Z,8.60
2023-02-24T19:43:49.581Z,9.27
2023-02-24T19:46:17.196Z,8.77
2023-02-24T19:48:45.301Z,7.78
2023-02-24T19:51:20.237Z,8.93
2023-02-24T19:53:47.957Z,8.40
2023-02-24T19:56:14.816Z,9.35
2023-02-24T19:58:41.758Z,8.68
2023-02-24T20:01:11.343Z,8.07
2023-02-24T20:03:40.082Z,8.15
2023-02-24T20:06:08.222Z,8.38
2023-02-24T20:08:35.958Z,8.82
2023-02-24T20:11:04.985Z,8.30
2023-02-24T20:13:32.009Z,8.05
2023-02-24T20:16:11.973Z,9.20
2023-02-24T20:18:39.614Z,8.15
2023-02-24T20:21:07.009Z,9.13
2023-02-24T20:23:34.001Z,9.07
2023-02-24T20:26:01.678Z,9.40
2023-02-24T20:28:29.377Z,9.10
2023-02-24T20:31:00.204Z,9.55
2023-02-24T20:33:27.115Z,10.13
2023-02-24T20:35:53.897Z,10.43
2023-02-24T20:38:20.937Z,10.18
2023-02-24T20:41:00.347Z,9.70
2023-02-24T20:43:28.261Z,10.45
2023-02-24T20:45:57.927Z,10.63
2023-02-24T20:48:28.197Z,11.68
2023-02-24T20:50:58.091Z,9.88
2023-02-24T20:53:27.923Z,10.52
2023-02-24T20:56:01.977Z,10.57
2023-02-24T20:58:29.046Z,10.55
2023-02-24T21:00:56.135Z,10.32
2023-02-24T21:03:24.185Z,10.65
2023-02-24T21:06:01.539Z,10.82
2023-02-24T21:08:35.977Z,10.57
2023-02-24T21:11:02.969Z,10.05
2023-02-24T21:13:29.735Z,10.45
2023-02-24T21:15:58.238Z,10.57
2023-02-24T21:18:25.785Z,10.57
2023-02-24T21:20:54.156Z,11.20
2023-02-24T21:23:22.100Z,11.38
2023-02-24T21:25:55.897Z,11.00
2023-02-24T21:28:23.510Z,11.55
2023-02-24T21:30:50.565Z,11.27
2023-02-24T21:33:18.291Z,11.60
2023-02-24T21:35:45.670Z,10.68
2023-02-24T21:38:12.621Z,10.40
2023-02-24T21:40:41.865Z,10.48
2023-02-24T21:43:09.889Z,10.57
2023-02-24T21:45:37.001Z,10.20
2023-02-24T21:48:04.169Z,9.02
2023-02-24T21:50:31.990Z,9.70
2023-02-24T21:52:59.316Z,9.98
2023-02-24T21:55:30.066Z,9.55
2023-02-24T21:57:56.859Z,9.38
2023-02-24T22:00:24.363Z,9.50
2023-02-24T22:02:57.706Z,8.77
2023-02-24T22:05:26.135Z,9.45
2023-02-24T22:07:53.027Z,8.65
2023-02-24T22:10:22.111Z,8.65
2023-02-24T22:12:49.921Z,8.05
2023-02-24T22:15:17.220Z,8.32
2023-02-24T22:17:44.202Z,8.23
2023-02-24T22:20:13.545Z,8.90
2023-02-24T22:22:43.154Z,9.85
2023-02-24T22:25:11.638Z,8.70
2023-02-24T22:27:39.710Z,8.68
2023-02-24T22:30:08.380Z,8.00
2023-02-24T22:32:39.342Z,6.68
2023-02-24T22:35:06.738Z,7.80
2023-02-24T22:37:38.212Z,6.90
2023-02-24T22:40:08.968Z,6.88
2023-02-24T22:42:36.329Z,8.05
2023-02-24T22:45:03.399Z,6.55
2023-02-24T22:47:30.347Z,6.38
2023-02-24T22:49:57.847Z,5.95
2023-02-24T22:52:27.479Z,5.57
2023-02-24T22:54:56.256Z,5.32
2023-02-24T22:57:23.999Z,4.85
2023-02-24T22:59:51.143Z,3.90
2023-02-24T23:02:18.880Z,4.57
2023-02-24T23:04:46.953Z,3.58
2023-02-24T23:07:14.040Z,4.50
2023-02-24T23:09:41.685Z,3.17
2023-02-24T23:12:11.818Z,3.20
2023-02-24T23:14:39.221Z,3.05
2023-02-24T23:17:11.878Z,3.38
2023-02-24T23:19:39.965Z,4.72
2023-02-24T23:22:08.632Z,2.08
2023-02-24T23:24:36.562Z,2.83
2023-02-24T23:27:03.672Z,2.72
2023-02-24T23:29:32.433Z,2.90
2023-02-24T23:32:01.676Z,2.67
2023-02-24T23:34:31.744Z,2.58
2023-02-24T23:36:59.775Z,2.22
2023-02-24T23:39:30.234Z,2.63
2023-02-24T23:41:58.397Z,2.03
2023-02-24T23:44:25.373Z,2.13
2023-02-24T23:46:53.119Z,2.35
2023-02-24T23:49:20.589Z,2.45
2023-02-24T23:51:49.114Z,2.45
2023-02-24T23:54:20.120Z,2.20
2023-02-24T23:56:50.019Z,2.47
2023-02-24T23:59:17.802Z,2.28
